Time;durP1;ratioP1;P1;durP2;ratioP2;P2;SDS_P1;SDS_P2;PMS_P1;PMS_P2;Temp;Humidity;BMP_temperature;BMP_pressure;BME280_temperature;BME280_humidity;BME280_pressure;Samples;Min_cycle;Max_cycle;Signal;HPM_P1;HPM_P2
2022/01/10 00:00:33;;;;;;;1.40;1.30;;;6.00;99.90;;;;;;5027645;28;20402;-66
2022/01/10 00:03:02;;;;;;;1.75;1.33;;;6.00;99.90;;;;;;5028326;28;20239;-68
2022/01/10 00:05:30;;;;;;;1.95;1.50;;;6.00;99.90;;;;;;5028466;28;20397;-67
2022/01/10 00:07:58;;;;;;;1.92;1.73;;;6.00;99.90;;;;;;5027947;28;20281;-67
2022/01/10 00:10:26;;;;;;;1.33;1.23;;;6.00;99.90;;;;;;5026375;28;20259;-67
2022/01/10 00:12:56;;;;;;;2.38;1.65;;;6.00;99.90;;;;;;5026558;28;20267;-68
2022/01/10 00:15:24;;;;;;;2.65;1.30;;;6.00;99.90;;;;;;5028400;28;20234;-68
2022/01/10 00:17:52;;;;;;;1.65;1.55;;;6.00;99.90;;;;;;5026742;28;20351;-68
2022/01/10 00:20:21;;;;;;;2.83;1.45;;;6.00;99.90;;;;;;5028508;28;20247;-68
2022/01/10 00:22:50;;;;;;;2.60;1.50;;;6.00;99.90;;;;;;5028241;28;20245;-67
2022/01/10 00:25:20;;;;;;;1.65;1.30;;;6.00;99.90;;;;;;5013933;28;20193;-68
2022/01/10 00:27:52;;;;;;;1.63;1.30;;;6.00;99.90;;;;;;5027869;28;20236;-68
2022/01/10 00:30:23;;;;;;;2.25;1.40;;;6.00;99.90;;;;;;5028664;28;20213;-68
2022/01/10 00:32:51;;;;;;;2.22;1.17;;;6.00;99.90;;;;;;5026174;28;20217;-68
2022/01/10 00:35:20;;;;;;;1.75;1.13;;;6.00;99.90;;;;;;5026858;28;20204;-69
2022/01/10 00:37:49;;;;;;;1.00;1.00;;;6.00;99.90;;;;;;5026655;28;20224;-67
2022/01/10 00:40:18;;;;;;;1.90;1.10;;;6.00;99.90;;;;;;5026220;28;20186;-67
2022/01/10 00:42:53;;;;;;;2.35;1.60;;;6.00;99.90;;;;;;5028115;28;20239;-67
2022/01/10 00:45:26;;;;;;;1.63;1.25;;;6.00;99.90;;;;;;5027347;28;20220;-68
2022/01/10 00:47:56;;;;;;;1.55;1.45;;;6.00;99.90;;;;;;5009631;28;20230;-67
2022/01/10 00:50:25;;;;;;;1.45;1.20;;;6.00;99.90;;;;;;5028275;28;20209;-66
2022/01/10 00:52:54;;;;;;;1.45;1.10;;;6.00;99.90;;;;;;5027418;28;20228;-67
2022/01/10 00:55:23;;;;;;;2.25;1.33;;;6.00;99.90;;;;;;5024170;28;20290;-67
2022/01/10 00:57:51;;;;;;;2.35;1.48;;;6.00;99.90;;;;;;5025975;28;20209;-67
2022/01/10 01:00:19;;;;;;;1.40;1.30;;;6.00;99.90;;;;;;5026738;28;20224;-69
2022/01/10 01:02:50;;;;;;;1.83;1.48;;;6.00;99.90;;;;;;5025894;28;20225;-66
2022/01/10 01:05:21;;;;;;;5.78;1.48;;;6.00;99.90;;;;;;5026526;28;20560;-66
2022/01/10 01:07:49;;;;;;;1.30;1.20;;;6.00;99.90;;;;;;5027683;28;20239;-67
2022/01/10 01:10:50;;;;;;;1.30;1.20;;;6.00;99.90;;;;;;5022399;28;20205;-67
2022/01/10 01:13:26;;;;;;;2.47;1.25;;;6.00;99.90;;;;;;5027782;28;20217;-67
2022/01/10 01:16:10;;;;;;;2.60;2.28;;;6.00;99.90;;;;;;5024487;28;20898;-67
2022/01/10 01:24:10;;;;;;;2.20;1.10;;;6.00;99.90;;;;;;5020430;28;20184;-68
2022/01/10 01:26:40;;;;;;;2.13;1.17;;;6.00;99.90;;;;;;5025341;28;20221;-67
2022/01/10 01:29:10;;;;;;;1.63;1.40;;;6.00;99.90;;;;;;5027437;28;20656;-67
2022/01/10 01:31:41;;;;;;;2.00;1.70;;;6.00;99.90;;;;;;5024415;28;20237;-67
2022/01/10 01:34:11;;;;;;;1.35;1.20;;;6.00;99.90;;;;;;5027432;28;20197;-67
2022/01/10 01:36:40;;;;;;;1.85;1.02;;;6.00;99.90;;;;;;5027001;28;20232;-67
2022/01/10 01:39:18;;;;;;;2.25;1.40;;;6.00;99.90;;;;;;5023463;28;20201;-66
2022/01/10 01:41:50;;;;;;;1.42;1.33;;;6.00;99.90;;;;;;5022441;28;20231;-66
2022/01/10 01:44:18;;;;;;;1.63;1.25;;;6.00;99.90;;;;;;5026829;28;20189;-67
2022/01/10 01:46:47;;;;;;;2.00;1.48;;;6.00;99.90;;;;;;5016957;28;20337;-68
2022/01/10 01:49:16;;;;;;;1.95;1.65;;;5.90;99.90;;;;;;5026314;28;20189;-69
2022/01/10 01:51:44;;;;;;;5.30;1.90;;;6.00;99.90;;;;;;5025436;28;20406;-65
2022/01/10 01:54:13;;;;;;;3.58;1.83;;;5.90;99.90;;;;;;5026389;28;20197;-67
2022/01/10 01:56:42;;;;;;;2.70;1.60;;;5.90;99.90;;;;;;5025225;28;20264;-68
2022/01/10 01:59:12;;;;;;;2.15;1.30;;;5.90;99.90;;;;;;5030372;28;20197;-68
2022/01/10 02:01:40;;;;;;;1.65;1.30;;;5.90;99.90;;;;;;5028704;28;20225;-66
2022/01/10 02:04:08;;;;;;;1.50;1.33;;;5.90;99.90;;;;;;5016803;28;20214;-67
2022/01/10 02:06:38;;;;;;;1.73;1.52;;;5.90;99.90;;;;;;5029389;28;20260;-68
2022/01/10 02:09:07;;;;;;;2.65;1.50;;;5.90;99.90;;;;;;5026422;28;20216;-67
2022/01/10 02:11:35;;;;;;;4.35;1.50;;;5.90;99.90;;;;;;5020774;28;20232;-67
2022/01/10 02:14:04;;;;;;;4.18;1.85;;;5.90;99.90;;;;;;5028948;28;20733;-68
2022/01/10 02:16:43;;;;;;;1.20;1.00;;;5.90;99.90;;;;;;5019312;28;20226;-67
2022/01/10 02:19:32;;;;;;;2.17;1.42;;;5.90;99.90;;;;;;5010236;28;20198;-67
2022/01/10 02:22:01;;;;;;;2.65;1.75;;;5.90;99.90;;;;;;5027126;28;20252;-68
2022/01/10 02:24:39;;;;;;;2.17;1.58;;;5.90;99.90;;;;;;5029511;28;20200;-67
2022/01/10 02:27:10;;;;;;;2.05;1.40;;;5.90;99.90;;;;;;5030206;28;20256;-67
2022/01/10 02:29:38;;;;;;;1.90;1.48;;;5.90;99.90;;;;;;5030606;28;20197;-67
2022/01/10 02:32:07;;;;;;;1.35;1.23;;;5.90;99.90;;;;;;5028126;28;20271;-68
2022/01/10 02:34:35;;;;;;;2.85;1.85;;;5.90;99.90;;;;;;5029417;28;20774;-69
2022/01/10 02:37:05;;;;;;;2.78;1.90;;;5.90;99.90;;;;;;5028886;28;20796;-68
2022/01/10 02:39:36;;;;;;;2.10;1.50;;;5.90;99.90;;;;;;5015706;28;20571;-66
2022/01/10 02:42:04;;;;;;;3.67;1.52;;;5.90;99.90;;;;;;5020436;28;20225;-68
2022/01/10 02:44:33;;;;;;;2.95;1.45;;;5.90;99.90;;;;;;5027787;28;20200;-67
2022/01/10 02:47:01;;;;;;;1.60;1.50;;;5.90;99.90;;;;;;5019495;28;20287;-67
2022/01/10 02:49:34;;;;;;;2.65;1.75;;;5.90;99.90;;;;;;5029510;28;20200;-67
2022/01/10 02:52:02;;;;;;;1.92;1.38;;;5.90;99.90;;;;;;5029981;28;20217;-67
2022/01/10 02:54:33;;;;;;;2.25;1.67;;;5.90;99.90;;;;;;5028976;28;20224;-67
2022/01/10 02:57:09;;;;;;;2.20;1.50;;;5.90;99.90;;;;;;5025196;28;20917;-67
2022/01/10 02:59:39;;;;;;;2.15;1.67;;;5.90;99.90;;;;;;5029256;28;20616;-69
2022/01/10 03:02:08;;;;;;;3.90;1.90;;;5.90;99.90;;;;;;5027460;28;20216;-67
2022/01/10 03:04:38;;;;;;;3.55;2.05;;;5.90;99.90;;;;;;5029054;28;20887;-69
2022/01/10 03:07:06;;;;;;;2.00;1.60;;;5.80;99.90;;;;;;5028817;28;20224;-67
2022/01/10 03:09:37;;;;;;;1.65;1.55;;;5.80;99.90;;;;;;5028322;28;20292;-67
2022/01/10 03:12:09;;;;;;;3.28;1.80;;;5.80;99.90;;;;;;5028018;28;20271;-66
2022/01/10 03:14:38;;;;;;;1.73;1.55;;;5.80;99.90;;;;;;5028489;28;20202;-67
2022/01/10 03:17:08;;;;;;;2.67;1.75;;;5.80;99.90;;;;;;5026864;28;20220;-67
2022/01/10 03:19:36;;;;;;;2.35;1.85;;;5.80;99.90;;;;;;5028138;28;20197;-67
2022/01/10 03:22:06;;;;;;;1.77;1.50;;;5.80;99.90;;;;;;5028277;28;20243;-66
2022/01/10 03:24:37;;;;;;;2.70;1.75;;;5.80;99.90;;;;;;5027835;28;20610;-68
2022/01/10 03:27:06;;;;;;;2.92;1.48;;;5.80;99.90;;;;;;5020486;28;20245;-67
2022/01/10 03:29:34;;;;;;;1.48;1.35;;;5.80;99.90;;;;;;5029676;28;20244;-66
2022/01/10 03:32:05;;;;;;;2.20;1.65;;;5.80;99.90;;;;;;5027215;28;20227;-68
2022/01/10 03:34:33;;;;;;;1.70;1.60;;;5.80;99.90;;;;;;5029913;28;20961;-67
2022/01/10 03:37:02;;;;;;;2.03;1.23;;;5.80;99.90;;;;;;5027442;28;20232;-68
2022/01/10 03:39:30;;;;;;;2.30;1.40;;;5.80;99.90;;;;;;5024063;28;20198;-68
2022/01/10 03:41:59;;;;;;;1.73;1.10;;;5.80;99.90;;;;;;5026958;28;20760;-68
2022/01/10 03:44:28;;;;;;;1.90;1.65;;;5.80;99.90;;;;;;5029673;28;20205;-69
2022/01/10 03:46:57;;;;;;;1.65;1.55;;;5.80;99.90;;;;;;5018000;28;20394;-68
2022/01/10 03:49:26;;;;;;;1.60;1.35;;;5.80;99.90;;;;;;5028620;28;20208;-66
2022/01/10 03:51:54;;;;;;;2.70;1.30;;;5.80;99.90;;;;;;5027855;28;20690;-66
2022/01/10 03:54:22;;;;;;;2.38;1.60;;;5.80;99.90;;;;;;5008615;28;20197;-67
2022/01/10 03:56:53;;;;;;;2.38;1.40;;;5.80;99.90;;;;;;5009627;28;20295;-67
2022/01/10 03:59:23;;;;;;;2.13;1.85;;;5.80;99.90;;;;;;5027874;28;20193;-67
2022/01/10 04:01:52;;;;;;;3.20;1.95;;;5.80;99.90;;;;;;5026955;28;20217;-65
2022/01/10 04:04:20;;;;;;;2.17;1.63;;;5.80;99.90;;;;;;5027413;28;20200;-67
2022/01/10 04:06:49;;;;;;;2.53;1.80;;;5.80;99.90;;;;;;5027265;28;20259;-66
2022/01/10 04:09:19;;;;;;;2.13;1.40;;;5.80;99.90;;;;;;5028839;28;20197;-67
2022/01/10 04:11:47;;;;;;;1.85;1.50;;;5.80;99.90;;;;;;5025803;28;20227;-67
2022/01/10 04:14:20;;;;;;;2.28;1.30;;;5.80;99.90;;;;;;5028864;28;20225;-67
2022/01/10 04:16:49;;;;;;;3.38;1.50;;;5.80;99.90;;;;;;5026300;28;20232;-67
2022/01/10 04:19:17;;;;;;;4.43;1.50;;;5.80;99.90;;;;;;5027643;28;20240;-67
2022/01/10 04:21:45;;;;;;;2.05;1.40;;;5.80;99.90;;;;;;5027303;28;20228;-68
2022/01/10 04:24:15;;;;;;;3.38;1.70;;;5.80;99.90;;;;;;5023001;28;20650;-66
2022/01/10 04:26:44;;;;;;;1.85;1.70;;;5.70;99.90;;;;;;5030355;28;20272;-67
2022/01/10 04:29:15;;;;;;;2.45;1.92;;;5.70;99.90;;;;;;5027457;28;20195;-68
2022/01/10 04:31:43;;;;;;;1.42;1.30;;;5.70;99.90;;;;;;5025767;28;20730;-67
2022/01/10 04:34:16;;;;;;;3.08;1.80;;;5.80;99.90;;;;;;5027245;28;20966;-67
2022/01/10 04:36:45;;;;;;;2.03;1.83;;;5.70;99.90;;;;;;5026370;28;20317;-67
2022/01/10 04:39:14;;;;;;;2.47;1.30;;;5.70;99.90;;;;;;5026072;28;20203;-67
2022/01/10 04:41:42;;;;;;;2.05;1.55;;;5.70;99.90;;;;;;5026354;28;20228;-67
2022/01/10 04:44:10;;;;;;;1.80;1.70;;;5.70;99.90;;;;;;5028560;28;20189;-69
2022/01/10 04:46:39;;;;;;;1.77;1.67;;;5.70;99.90;;;;;;5025227;28;20782;-68
2022/01/10 04:49:14;;;;;;;2.10;1.70;;;5.70;99.90;;;;;;5026821;28;20217;-66
2022/01/10 04:51:44;;;;;;;1.88;1.65;;;5.70;99.90;;;;;;5026498;28;20307;-67
2022/01/10 04:54:12;;;;;;;3.33;1.80;;;5.70;99.90;;;;;;5020702;28;20192;-67
2022/01/10 04:56:40;;;;;;;3.65;2.10;;;5.70;99.90;;;;;;5024004;28;20239;-67
2022/01/10 04:59:08;;;;;;;2.25;1.65;;;5.70;99.90;;;;;;5024101;28;20197;-67
2022/01/10 05:01:36;;;;;;;3.72;2.00;;;5.70;99.90;;;;;;5022701;28;20252;-68
2022/01/10 05:04:06;;;;;;;2.10;1.90;;;5.70;99.90;;;;;;5026204;28;20243;-67
2022/01/10 05:06:35;;;;;;;1.73;1.52;;;5.70;99.90;;;;;;5026822;28;20274;-67
2022/01/10 05:09:05;;;;;;;1.70;1.40;;;5.70;99.90;;;;;;5027481;28;20543;-67
2022/01/10 05:11:50;;;;;;;3.15;1.60;;;5.70;99.90;;;;;;5023951;28;20216;-68
2022/01/10 05:14:18;;;;;;;1.92;1.73;;;5.70;99.90;;;;;;5009705;28;20208;-66
2022/01/10 05:16:47;;;;;;;2.63;2.00;;;5.70;99.90;;;;;;5016887;28;20233;-67
2022/01/10 05:19:15;;;;;;;2.83;1.70;;;5.70;99.90;;;;;;5026716;28;20193;-65
2022/01/10 05:21:43;;;;;;;2.92;1.83;;;5.70;99.90;;;;;;5027194;28;20224;-67
2022/01/10 05:24:12;;;;;;;1.80;1.60;;;5.70;99.90;;;;;;5026308;28;20189;-68
2022/01/10 05:26:41;;;;;;;2.95;1.95;;;5.70;99.90;;;;;;5024689;28;20260;-67
2022/01/10 05:29:12;;;;;;;1.65;1.55;;;5.70;99.90;;;;;;5026752;28;20195;-67
2022/01/10 05:31:41;;;;;;;2.70;2.08;;;5.70;99.90;;;;;;5023503;28;20327;-67
2022/01/10 05:34:38;;;;;;;1.95;1.85;;;5.70;99.90;;;;;;4981485;28;20207;-65
2022/01/10 05:37:06;;;;;;;2.10;1.50;;;5.70;99.90;;;;;;5025439;28;20231;-66
2022/01/10 05:39:36;;;;;;;2.13;1.77;;;5.70;99.90;;;;;;5025725;28;20213;-67
2022/01/10 05:42:05;;;;;;;2.50;1.77;;;5.70;99.90;;;;;;5025515;28;20232;-67
2022/01/10 05:44:33;;;;;;;2.20;2.00;;;5.60;99.90;;;;;;5026202;28;20272;-67
2022/01/10 05:47:02;;;;;;;2.00;1.70;;;5.60;99.90;;;;;;5016436;28;20236;-67
2022/01/10 05:49:34;;;;;;;2.50;2.30;;;5.70;99.90;;;;;;5025932;28;20738;-67
2022/01/10 05:52:06;;;;;;;2.95;2.08;;;5.60;99.90;;;;;;5016889;28;20236;-65
2022/01/10 05:54:39;;;;;;;1.95;1.58;;;5.70;99.90;;;;;;5026066;28;20195;-67
2022/01/10 05:57:08;;;;;;;3.25;1.75;;;5.70;99.90;;;;;;5025771;28;20895;-67
2022/01/10 05:59:40;;;;;;;2.70;1.80;;;5.60;99.90;;;;;;5026447;28;20271;-67
2022/01/10 06:02:10;;;;;;;2.90;2.03;;;5.60;99.90;;;;;;5019523;28;20295;-67
2022/01/10 06:04:39;;;;;;;2.63;2.10;;;5.60;99.90;;;;;;5025566;28;20713;-67
2022/01/10 06:07:27;;;;;;;1.85;1.40;;;5.60;99.90;;;;;;5025650;28;20233;-68
2022/01/10 06:09:57;;;;;;;1.90;1.70;;;5.60;99.90;;;;;;5025203;28;20201;-68
2022/01/10 06:12:25;;;;;;;2.90;2.13;;;5.60;99.90;;;;;;5025516;28;20714;-67
2022/01/10 06:14:53;;;;;;;2.55;2.30;;;5.60;99.90;;;;;;5025652;28;20213;-68
2022/01/10 06:17:21;;;;;;;5.72;2.40;;;5.60;99.90;;;;;;5024406;28;20224;-68
2022/01/10 06:19:50;;;;;;;4.38;2.10;;;5.60;99.90;;;;;;5025551;28;20671;-67
2022/01/10 06:22:18;;;;;;;2.15;1.65;;;5.60;99.90;;;;;;5025439;28;20291;-67
2022/01/10 06:24:46;;;;;;;2.70;2.33;;;5.60;99.90;;;;;;5023363;28;20272;-67
2022/01/10 06:27:16;;;;;;;3.00;1.80;;;5.60;99.90;;;;;;5021954;28;20264;-66
2022/01/10 06:29:44;;;;;;;2.75;1.73;;;5.60;99.90;;;;;;5023482;28;20287;-67
2022/01/10 06:32:14;;;;;;;2.58;2.00;;;5.60;99.90;;;;;;5021690;28;20221;-68
2022/01/10 06:34:42;;;;;;;2.05;1.65;;;5.60;99.90;;;;;;5022372;28;20213;-66
2022/01/10 06:37:10;;;;;;;1.90;1.40;;;5.60;99.90;;;;;;5024886;28;20229;-67
2022/01/10 06:39:43;;;;;;;2.83;1.95;;;5.60;99.90;;;;;;5025553;28;20197;-67
2022/01/10 06:42:13;;;;;;;2.10;1.90;;;5.60;99.90;;;;;;5023950;28;20227;-69
2022/01/10 06:44:43;;;;;;;2.80;2.05;;;5.60;99.90;;;;;;5029104;28;20186;-68
2022/01/10 06:47:14;;;;;;;2.53;2.05;;;5.60;99.90;;;;;;5027733;28;20225;-65
2022/01/10 06:49:43;;;;;;;3.53;2.05;;;5.60;99.90;;;;;;5029475;28;20197;-66
2022/01/10 06:52:12;;;;;;;2.67;2.30;;;5.60;99.90;;;;;;5028294;28;20698;-67
2022/01/10 06:54:43;;;;;;;2.25;1.50;;;5.60;99.90;;;;;;5027853;28;20733;-67
2022/01/10 06:57:11;;;;;;;2.17;1.77;;;5.60;99.90;;;;;;5026610;28;20630;-68
2022/01/10 06:59:40;;;;;;;3.10;2.13;;;5.60;99.90;;;;;;5028368;28;20194;-67
2022/01/10 07:02:11;;;;;;;2.50;2.30;;;5.60;99.90;;;;;;5028008;28;20249;-67
2022/01/10 07:04:40;;;;;;;3.42;1.83;;;5.60;99.90;;;;;;5028200;28;20765;-66
2022/01/10 07:07:09;;;;;;;2.88;2.05;;;5.60;99.90;;;;;;5028501;28;20642;-66
2022/01/10 07:09:41;;;;;;;2.40;2.20;;;5.50;99.90;;;;;;5027268;28;20641;-67
2022/01/10 07:12:14;;;;;;;2.10;1.90;;;5.60;99.90;;;;;;5028142;28;20271;-65
2022/01/10 07:15:01;;;;;;;3.13;1.95;;;5.60;99.90;;;;;;5028103;28;20579;-67
2022/01/10 07:17:32;;;;;;;2.70;2.50;;;5.60;99.90;;;;;;5026674;28;20661;-66
2022/01/10 07:20:03;;;;;;;3.47;2.15;;;5.60;99.90;;;;;;5027692;28;20243;-67
2022/01/10 07:22:36;;;;;;;2.22;2.00;;;5.60;99.90;;;;;;5028387;28;20267;-68
2022/01/10 07:25:06;;;;;;;3.28;2.15;;;5.50;99.90;;;;;;5024258;28;20580;-67
2022/01/10 07:27:34;;;;;;;2.95;1.95;;;5.50;99.90;;;;;;5018210;28;20251;-67
2022/01/10 07:30:04;;;;;;;4.05;2.63;;;5.50;99.90;;;;;;5028511;28;20725;-67
2022/01/10 07:32:34;;;;;;;3.28;1.95;;;5.50;99.90;;;;;;5024365;28;20639;-67
2022/01/10 07:35:02;;;;;;;2.50;2.20;;;5.60;99.90;;;;;;5029612;28;20287;-67
2022/01/10 07:37:30;;;;;;;2.47;1.90;;;5.50;99.90;;;;;;5028984;28;20229;-66
2022/01/10 07:39:58;;;;;;;1.90;1.70;;;5.50;99.90;;;;;;5028165;28;20243;-67
2022/01/10 07:42:26;;;;;;;2.20;2.00;;;5.50;99.90;;;;;;5023373;28;20640;-66
2022/01/10 07:45:05;;;;;;;2.70;2.30;;;5.50;99.90;;;;;;5027741;28;20193;-67
2022/01/10 07:47:35;;;;;;;3.38;2.13;;;5.50;99.90;;;;;;5020597;28;20291;-66
2022/01/10 07:50:05;;;;;;;3.83;2.30;;;5.50;99.90;;;;;;5029475;28;20201;-67
2022/01/10 07:52:34;;;;;;;2.75;2.25;;;5.50;99.90;;;;;;5028577;28;20235;-68
2022/01/10 07:55:03;;;;;;;4.22;2.00;;;5.50;99.90;;;;;;5026068;28;20213;-66
2022/01/10 07:57:31;;;;;;;2.80;2.15;;;5.50;99.90;;;;;;5028731;28;20229;-68
2022/01/10 07:59:59;;;;;;;3.05;2.10;;;5.50;99.90;;;;;;5028981;28;20796;-67
2022/01/10 08:02:27;;;;;;;2.55;2.35;;;5.50;99.90;;;;;;5020431;28;20693;-67
2022/01/10 08:04:56;;;;;;;4.45;2.55;;;5.50;99.90;;;;;;5029156;28;20199;-66
2022/01/10 08:07:24;;;;;;;2.60;2.00;;;5.50;99.90;;;;;;5028405;28;20229;-65
2022/01/10 08:09:52;;;;;;;4.97;2.13;;;5.50;99.90;;;;;;5029026;28;20197;-66
2022/01/10 08:12:21;;;;;;;6.75;2.55;;;5.50;99.90;;;;;;5025583;28;20213;-68
2022/01/10 08:14:49;;;;;;;3.45;2.05;;;5.50;99.90;;;;;;5028094;28;20817;-66
2022/01/10 08:17:17;;;;;;;1.73;1.60;;;5.50;99.90;;;;;;5025652;28;20229;-67
2022/01/10 08:19:45;;;;;;;2.90;2.00;;;5.50;99.90;;;;;;5028607;28;20228;-66
2022/01/10 08:22:15;;;;;;;3.00;2.15;;;5.50;99.90;;;;;;5026966;28;20694;-67
2022/01/10 08:24:43;;;;;;;3.60;2.28;;;5.50;99.90;;;;;;5021408;28;20193;-67
2022/01/10 08:27:11;;;;;;;2.67;2.20;;;5.50;99.90;;;;;;5028126;28;20221;-65
2022/01/10 08:29:39;;;;;;;3.20;2.80;;;5.50;99.90;;;;;;5025333;28;20205;-67
2022/01/10 08:32:09;;;;;;;4.43;2.50;;;5.50;99.90;;;;;;5026123;28;20213;-68
2022/01/10 08:34:37;;;;;;;2.10;1.90;;;5.50;99.90;;;;;;5028507;28;20217;-67
2022/01/10 08:37:05;;;;;;;2.28;2.08;;;5.50;99.90;;;;;;5019092;28;20221;-66
2022/01/10 08:39:34;;;;;;;2.65;2.40;;;5.50;99.90;;;;;;5021504;28;20251;-68
2022/01/10 08:42:03;;;;;;;2.30;2.00;;;5.50;99.90;;;;;;5027741;28;20217;-67
2022/01/10 08:44:31;;;;;;;2.33;2.13;;;5.50;99.90;;;;;;5028304;28;20243;-67
2022/01/10 08:46:59;;;;;;;2.45;2.00;;;5.50;99.90;;;;;;5019372;28;20922;-69
2022/01/10 08:49:27;;;;;;;2.45;2.20;;;5.50;99.90;;;;;;5027911;28;20197;-68
2022/01/10 08:51:57;;;;;;;2.15;1.85;;;5.40;99.90;;;;;;5027961;28;20221;-67
2022/01/10 08:54:25;;;;;;;3.30;1.92;;;5.40;99.90;;;;;;5027802;28;20288;-67
2022/01/10 08:56:55;;;;;;;2.40;1.92;;;5.40;99.90;;;;;;5018884;28;20235;-66
2022/01/10 08:59:23;;;;;;;2.90;2.30;;;5.50;99.90;;;;;;5027755;28;20251;-67
2022/01/10 09:01:51;;;;;;;2.53;2.25;;;5.50;99.90;;;;;;5026772;28;20233;-67
2022/01/10 09:04:19;;;;;;;3.08;2.10;;;5.40;99.90;;;;;;5027149;28;20259;-67
2022/01/10 09:06:49;;;;;;;3.47;2.10;;;5.40;99.90;;;;;;5026173;28;20228;-68
2022/01/10 09:09:18;;;;;;;4.00;2.80;;;5.40;99.90;;;;;;5027738;28;20220;-67
2022/01/10 09:11:47;;;;;;;2.58;2.15;;;5.40;99.90;;;;;;5026665;28;20299;-67
2022/01/10 09:14:17;;;;;;;3.88;2.70;;;5.50;99.90;;;;;;5027595;28;20224;-66
2022/01/10 09:16:45;;;;;;;2.55;2.25;;;5.40;99.90;;;;;;5018237;28;20261;-67
2022/01/10 09:19:13;;;;;;;3.33;2.40;;;5.40;99.90;;;;;;5027493;28;20243;-66
2022/01/10 09:21:42;;;;;;;3.15;2.35;;;5.50;99.90;;;;;;5017529;28;20278;-67
2022/01/10 09:24:11;;;;;;;1.83;1.63;;;5.50;99.90;;;;;;5027295;28;20189;-66
2022/01/10 09:26:39;;;;;;;4.57;2.33;;;5.50;99.90;;;;;;5017163;28;20229;-67
2022/01/10 09:29:07;;;;;;;3.47;2.40;;;5.50;99.90;;;;;;5034914;28;20244;-67
2022/01/10 09:31:37;;;;;;;2.88;2.53;;;5.50;99.90;;;;;;5024152;28;20707;-68
2022/01/10 09:34:05;;;;;;;2.95;2.00;;;5.50;99.90;;;;;;5025379;28;20200;-68
2022/01/10 09:36:34;;;;;;;3.60;2.50;;;5.50;99.90;;;;;;5027036;28;20271;-67
2022/01/10 09:39:03;;;;;;;5.22;2.83;;;5.50;99.90;;;;;;5025867;28;20283;-66
2022/01/10 09:41:31;;;;;;;2.78;2.58;;;5.50;99.90;;;;;;5024708;28;20225;-67
2022/01/10 09:44:02;;;;;;;1.98;1.70;;;5.50;99.90;;;;;;5023479;28;20200;-67
2022/01/10 09:46:32;;;;;;;2.80;2.25;;;5.50;99.90;;;;;;5024751;28;20707;-67
2022/01/10 09:49:03;;;;;;;2.38;2.17;;;5.50;99.90;;;;;;5026958;28;20728;-66
2022/01/10 09:51:33;;;;;;;3.38;2.40;;;5.50;99.90;;;;;;5026708;28;20232;-66
2022/01/10 09:54:03;;;;;;;1.92;1.73;;;5.50;99.90;;;;;;5020577;28;20726;-66
2022/01/10 09:56:35;;;;;;;2.72;2.38;;;5.50;99.90;;;;;;5025802;28;20231;-67
2022/01/10 09:59:04;;;;;;;2.90;1.90;;;5.50;99.90;;;;;;5020603;28;20667;-67
2022/01/10 10:01:32;;;;;;;3.90;2.75;;;5.50;99.90;;;;;;5018146;28;20248;-68
2022/01/10 10:04:02;;;;;;;2.60;2.40;;;5.50;99.90;;;;;;5015593;28;20224;-68
2022/01/10 10:06:32;;;;;;;1.90;1.70;;;5.50;99.90;;;;;;5025728;28;20695;-67
2022/01/10 10:09:01;;;;;;;2.00;1.80;;;5.60;99.90;;;;;;5015688;28;20240;-68
2022/01/10 10:11:37;;;;;;;2.42;2.00;;;5.60;99.90;;;;;;5019708;28;20233;-67
2022/01/10 10:14:07;;;;;;;2.90;1.98;;;5.60;99.90;;;;;;5026940;28;20286;-67
2022/01/10 10:16:41;;;;;;;3.20;2.03;;;5.60;99.90;;;;;;5025212;28;20540;-67
2022/01/10 10:19:13;;;;;;;2.65;2.33;;;5.60;99.90;;;;;;5030903;28;20598;-66
2022/01/10 10:21:41;;;;;;;3.55;2.20;;;5.60;99.90;;;;;;5030201;28;20221;-67
2022/01/10 10:24:09;;;;;;;2.20;1.90;;;5.60;99.90;;;;;;5031528;28;20725;-68
2022/01/10 10:26:37;;;;;;;2.03;1.80;;;5.60;99.90;;;;;;5028886;28;20221;-69
2022/01/10 10:29:06;;;;;;;3.15;2.13;;;5.60;99.90;;;;;;5030663;28;20602;-68
2022/01/10 10:31:36;;;;;;;3.45;2.63;;;5.60;99.90;;;;;;5028415;28;20256;-66
2022/01/10 10:34:05;;;;;;;2.38;2.17;;;5.60;99.90;;;;;;5015981;28;20255;-67
2022/01/10 10:36:36;;;;;;;2.30;2.10;;;5.60;99.90;;;;;;5029894;28;20283;-67
2022/01/10 10:39:07;;;;;;;2.88;2.40;;;5.60;99.90;;;;;;5030506;28;20193;-66
2022/01/10 10:41:36;;;;;;;2.30;1.90;;;5.60;99.90;;;;;;5028808;28;20223;-68
2022/01/10 10:44:06;;;;;;;2.20;2.00;;;5.60;99.90;;;;;;5029370;28;20602;-67
2022/01/10 10:46:36;;;;;;;2.42;1.92;;;5.60;99.90;;;;;;5021380;28;20239;-66
2022/01/10 10:49:04;;;;;;;2.20;2.00;;;5.60;99.90;;;;;;5030078;28;20193;-66
2022/01/10 10:51:36;;;;;;;2.35;1.85;;;5.60;99.90;;;;;;5028145;28;20233;-67
2022/01/10 10:54:07;;;;;;;2.38;2.15;;;5.60;99.90;;;;;;5029651;28;20193;-67
2022/01/10 10:56:38;;;;;;;2.40;2.03;;;5.60;99.90;;;;;;5023611;28;20263;-67
2022/01/10 10:59:07;;;;;;;3.97;2.17;;;5.60;99.90;;;;;;5030208;28;20651;-67
2022/01/10 11:01:38;;;;;;;4.65;2.45;;;5.60;99.90;;;;;;5023305;28;20707;-69
2022/01/10 11:04:10;;;;;;;3.90;1.80;;;5.60;99.90;;;;;;5029908;28;20189;-67
2022/01/10 11:06:40;;;;;;;3.20;2.53;;;5.60;99.90;;;;;;5019714;28;20235;-67
2022/01/10 11:09:12;;;;;;;3.05;2.00;;;5.60;99.90;;;;;;5029380;28;20197;-67
2022/01/10 11:11:41;;;;;;;3.38;1.90;;;5.60;99.90;;;;;;5020978;28;20225;-66
2022/01/10 11:14:11;;;;;;;3.75;2.95;;;5.60;99.90;;;;;;5028593;28;20235;-68
2022/01/10 11:16:41;;;;;;;4.00;2.78;;;5.50;99.90;;;;;;5020400;28;20233;-67
2022/01/10 11:19:14;;;;;;;3.40;2.35;;;5.50;99.90;;;;;;5030381;28;20197;-68
2022/01/10 11:21:47;;;;;;;2.20;1.80;;;5.50;99.90;;;;;;5028314;28;20212;-64
2022/01/10 11:24:42;;;;;;;1.80;1.70;;;5.50;99.90;;;;;;5029168;28;20571;-67
2022/01/10 11:27:28;;;;;;;2.67;2.30;;;5.50;99.90;;;;;;5016765;28;20296;-66
2022/01/10 11:29:57;;;;;;;3.40;2.35;;;5.50;99.90;;;;;;5029613;28;20189;-68
2022/01/10 11:32:51;;;;;;;2.17;1.73;;;5.50;99.90;;;;;;5011603;28;20233;-68
2022/01/10 11:35:40;;;;;;;1.70;1.38;;;5.50;99.90;;;;;;5025005;28;20219;-66
2022/01/10 11:38:25;;;;;;;2.10;1.90;;;5.50;99.90;;;;;;5029160;28;20225;-65
2022/01/10 11:40:56;;;;;;;3.50;3.00;;;5.50;99.90;;;;;;5024435;28;20264;-66
2022/01/10 11:43:43;;;;;;;2.67;2.13;;;5.50;99.90;;;;;;5029717;28;20200;-67
2022/01/10 11:46:25;;;;;;;2.50;1.75;;;5.50;99.90;;;;;;5022304;28;20317;-67
2022/01/10 11:48:59;;;;;;;2.97;2.13;;;5.50;99.90;;;;;;5021623;28;20201;-67
2022/01/10 11:51:31;;;;;;;2.45;2.13;;;5.50;99.90;;;;;;5028494;28;20864;-66
2022/01/10 11:54:09;;;;;;;3.40;2.15;;;5.50;99.90;;;;;;5026535;28;20289;-67
2022/01/10 11:56:39;;;;;;;3.60;2.42;;;5.50;99.90;;;;;;5018225;28;20236;-67
2022/01/10 11:59:26;;;;;;;3.95;2.40;;;5.50;99.90;;;;;;5028819;28;20217;-67
2022/01/10 12:01:59;;;;;;;2.60;1.77;;;5.50;99.90;;;;;;5028004;28;20232;-67
2022/01/10 12:04:29;;;;;;;2.40;2.13;;;5.50;99.90;;;;;;5028865;28;20566;-67
2022/01/10 12:06:58;;;;;;;3.22;2.80;;;5.50;99.90;;;;;;5028523;28;20255;-67
2022/01/10 12:09:28;;;;;;;3.75;2.70;;;5.50;99.90;;;;;;5015885;28;20252;-68
2022/01/10 12:11:58;;;;;;;2.72;2.53;;;5.50;99.90;;;;;;5019919;28;20217;-66
2022/01/10 12:14:27;;;;;;;3.00;2.25;;;5.50;99.90;;;;;;5028455;28;20196;-67
2022/01/10 12:16:56;;;;;;;3.13;2.13;;;5.50;99.90;;;;;;5027763;28;20287;-68
2022/01/10 12:19:25;;;;;;;4.65;2.63;;;5.50;99.90;;;;;;5028122;28;20205;-68
2022/01/10 12:21:54;;;;;;;2.97;2.67;;;5.50;99.90;;;;;;5028495;28;20229;-67
2022/01/10 12:24:22;;;;;;;3.35;2.40;;;5.50;99.90;;;;;;5026399;28;20225;-66
2022/01/10 12:26:53;;;;;;;4.35;2.60;;;5.50;99.90;;;;;;5026617;28;20240;-68
2022/01/10 12:29:24;;;;;;;3.65;2.00;;;5.50;99.90;;;;;;5018760;28;20202;-66
2022/01/10 12:31:54;;;;;;;3.47;2.58;;;5.50;99.90;;;;;;5025408;28;20251;-67
2022/01/10 12:34:22;;;;;;;5.45;3.20;;;5.50;99.90;;;;;;5028699;28;20193;-67
2022/01/10 12:36:52;;;;;;;2.88;2.17;;;5.50;99.90;;;;;;5027860;28;20225;-68
2022/01/10 12:39:25;;;;;;;6.15;3.00;;;5.50;99.90;;;;;;5026024;28;20611;-67
2022/01/10 12:41:57;;;;;;;7.22;3.60;;;5.50;99.90;;;;;;5019694;28;20229;-68
2022/01/10 12:44:26;;;;;;;5.20;2.70;;;5.50;99.90;;;;;;5028124;28;20236;-68
2022/01/10 12:46:54;;;;;;;4.18;2.53;;;5.50;99.90;;;;;;5008408;28;20445;-65
2022/01/10 12:49:22;;;;;;;3.05;2.35;;;5.50;99.90;;;;;;5019620;28;20216;-67
2022/01/10 12:51:52;;;;;;;6.28;3.10;;;5.50;99.90;;;;;;5027866;28;20302;-67
2022/01/10 12:54:22;;;;;;;4.18;2.85;;;5.50;99.90;;;;;;5026746;28;20193;-67
2022/01/10 12:56:51;;;;;;;3.70;2.65;;;5.50;99.90;;;;;;5025687;28;20220;-66
2022/01/10 12:59:23;;;;;;;4.25;3.08;;;5.50;99.90;;;;;;5022900;28;20196;-69
2022/01/10 13:01:53;;;;;;;4.93;3.40;;;5.50;99.90;;;;;;5025892;28;20209;-67
2022/01/10 13:04:23;;;;;;;6.47;2.97;;;5.50;99.90;;;;;;5028074;28;20193;-66
2022/01/10 13:06:52;;;;;;;4.70;2.40;;;5.50;99.90;;;;;;5028067;28;20231;-68
2022/01/10 13:09:21;;;;;;;5.85;3.88;;;5.50;99.90;;;;;;5027730;28;20255;-66
2022/01/10 13:12:01;;;;;;;3.10;2.22;;;5.50;99.90;;;;;;5026474;28;20228;-66
2022/01/10 13:14:37;;;;;;;3.42;2.78;;;5.50;99.90;;;;;;5027544;28;20193;-68
2022/01/10 13:17:08;;;;;;;6.15;2.90;;;5.50;99.90;;;;;;5025578;28;20213;-67
2022/01/10 13:19:38;;;;;;;3.90;3.05;;;5.50;99.90;;;;;;5021658;28;20200;-66